sensor_id;sensor_type;location;lat;lon;timestamp;temperature;humidity
20750;DHT22;10535;50.664;4.564;2023-05-31T00:01:19;13.60;99.90
20750;DHT22;10535;50.664;4.564;2023-05-31T00:04:29;13.50;99.90
20750;DHT22;10535;50.664;4.564;2023-05-31T00:06:55;13.50;99.90
20750;DHT22;10535;50.664;4.564;2023-05-31T00:09:20;13.50;99.90
20750;DHT22;10535;50.664;4.564;2023-05-31T00:11:47;13.30;99.90
20750;DHT22;10535;50.664;4.564;2023-05-31T00:14:16;13.20;99.90
20750;DHT22;10535;50.664;4.564;2023-05-31T00:16:57;13.30;99.90
20750;DHT22;10535;50.664;4.564;2023-05-31T00:19:26;13.20;99.90
20750;DHT22;10535;50.664;4.564;2023-05-31T00:21:56;13.10;99.90
20750;DHT22;10535;50.664;4.564;2023-05-31T00:24:55;13.20;99.90
20750;DHT22;10535;50.664;4.564;2023-05-31T00:27:21;13.10;99.90
20750;DHT22;10535;50.664;4.564;2023-05-31T00:30:14;13.00;99.90
20750;DHT22;10535;50.664;4.564;2023-05-31T00:32:47;12.90;99.90
20750;DHT22;10535;50.664;4.564;2023-05-31T00:35:14;12.90;99.90
20750;DHT22;10535;50.664;4.564;2023-05-31T00:37:52;12.80;99.90
20750;DHT22;10535;50.664;4.564;2023-05-31T00:40:18;12.80;99.90
20750;DHT22;10535;50.664;4.564;2023-05-31T00:42:44;12.70;99.90
20750;DHT22;10535;50.664;4.564;2023-05-31T00:45:11;12.80;99.90
20750;DHT22;10535;50.664;4.564;2023-05-31T00:47:37;12.80;99.90
20750;DHT22;10535;50.664;4.564;2023-05-31T00:50:15;12.80;99.90
20750;DHT22;10535;50.664;4.564;2023-05-31T00:52:56;12.70;99.90
20750;DHT22;10535;50.664;4.564;2023-05-31T00:55:25;12.70;99.90
20750;DHT22;10535;50.664;4.564;2023-05-31T00:58:12;12.70;99.90
20750;DHT22;10535;50.664;4.564;2023-05-31T01:00:53;12.70;99.90
20750;DHT22;10535;50.664;4.564;2023-05-31T01:03:42;12.80;99.90
20750;DHT22;10535;50.664;4.564;2023-05-31T01:06:34;12.70;99.90
20750;DHT22;10535;50.664;4.564;2023-05-31T01:09:09;12.80;99.90
20750;DHT22;10535;50.664;4.564;2023-05-31T01:18:17;12.50;99.90
20750;DHT22;10535;50.664;4.564;2023-05-31T01:21:01;12.40;99.90
20750;DHT22;10535;50.664;4.564;2023-05-31T01:28:45;12.30;99.90
20750;DHT22;10535;50.664;4.564;2023-05-31T01:31:26;12.40;99.90
20750;DHT22;10535;50.664;4.564;2023-05-31T01:33:58;12.40;99.90
20750;DHT22;10535;50.664;4.564;2023-05-31T01:36:25;12.40;99.90
20750;DHT22;10535;50.664;4.564;2023-05-31T01:39:14;12.30;99.90
20750;DHT22;10535;50.664;4.564;2023-05-31T01:42:20;12.40;99.90
20750;DHT22;10535;50.664;4.564;2023-05-31T01:48:15;12.30;99.90
20750;DHT22;10535;50.664;4.564;2023-05-31T01:51:08;12.40;99.90
20750;DHT22;10535;50.664;4.564;2023-05-31T01:54:34;12.30;99.90
20750;DHT22;10535;50.664;4.564;2023-05-31T01:57:29;12.10;99.90
20750;DHT22;10535;50.664;4.564;2023-05-31T02:00:47;12.10;99.90
20750;DHT22;10535;50.664;4.564;2023-05-31T02:03:45;12.10;99.90
20750;DHT22;10535;50.664;4.564;2023-05-31T02:06:56;12.10;99.90
20750;DHT22;10535;50.664;4.564;2023-05-31T02:09:49;12.00;99.90
20750;DHT22;10535;50.664;4.564;2023-05-31T02:12:19;12.00;99.90
20750;DHT22;10535;50.664;4.564;2023-05-31T02:15:17;12.00;99.90
20750;DHT22;10535;50.664;4.564;2023-05-31T02:18:24;12.00;99.90
20750;DHT22;10535;50.664;4.564;2023-05-31T02:24:29;11.80;99.90
20750;DHT22;10535;50.664;4.564;2023-05-31T02:27:00;11.90;99.90
20750;DHT22;10535;50.664;4.564;2023-05-31T02:29:46;11.80;99.90
20750;DHT22;10535;50.664;4.564;2023-05-31T02:32:51;11.80;99.90
20750;DHT22;10535;50.664;4.564;2023-05-31T02:35:19;11.80;99.90
20750;DHT22;10535;50.664;4.564;2023-05-31T02:38:05;11.80;99.90
20750;DHT22;10535;50.664;4.564;2023-05-31T02:40:54;11.90;99.90
20750;DHT22;10535;50.664;4.564;2023-05-31T02:43:45;11.90;99.90
20750;DHT22;10535;50.664;4.564;2023-05-31T02:46:31;11.80;99.90
20750;DHT22;10535;50.664;4.564;2023-05-31T02:49:44;11.80;99.90
20750;DHT22;10535;50.664;4.564;2023-05-31T02:52:16;11.70;99.90
20750;DHT22;10535;50.664;4.564;2023-05-31T02:54:56;11.60;99.90
20750;DHT22;10535;50.664;4.564;2023-05-31T02:57:43;11.60;99.90
20750;DHT22;10535;50.664;4.564;2023-05-31T03:01:06;11.60;99.90
20750;DHT22;10535;50.664;4.564;2023-05-31T03:03:52;11.50;99.90
20750;DHT22;10535;50.664;4.564;2023-05-31T03:07:00;11.50;99.90
20750;DHT22;10535;50.664;4.564;2023-05-31T03:09:49;11.60;99.90
20750;DHT22;10535;50.664;4.564;2023-05-31T03:12:35;11.60;99.90
20750;DHT22;10535;50.664;4.564;2023-05-31T03:15:26;11.40;99.90
20750;DHT22;10535;50.664;4.564;2023-05-31T03:18:52;11.50;99.90
20750;DHT22;10535;50.664;4.564;2023-05-31T03:21:46;11.30;99.90
20750;DHT22;10535;50.664;4.564;2023-05-31T03:24:19;11.40;99.90
20750;DHT22;10535;50.664;4.564;2023-05-31T03:26:45;11.40;99.90
20750;DHT22;10535;50.664;4.564;2023-05-31T03:29:13;11.30;99.90
20750;DHT22;10535;50.664;4.564;2023-05-31T03:31:39;11.40;99.90
20750;DHT22;10535;50.664;4.564;2023-05-31T03:34:24;11.40;99.90
20750;DHT22;10535;50.664;4.564;2023-05-31T03:36:58;11.40;99.90
20750;DHT22;10535;50.664;4.564;2023-05-31T03:39:36;11.40;99.90
20750;DHT22;10535;50.664;4.564;2023-05-31T03:42:03;11.40;99.90
20750;DHT22;10535;50.664;4.564;2023-05-31T03:44:37;11.40;99.90
20750;DHT22;10535;50.664;4.564;2023-05-31T03:47:08;11.40;99.90
20750;DHT22;10535;50.664;4.564;2023-05-31T03:49:39;11.40;99.90
20750;DHT22;10535;50.664;4.564;2023-05-31T03:52:06;11.40;99.90
20750;DHT22;10535;50.664;4.564;2023-05-31T03:54:34;11.40;99.90
20750;DHT22;10535;50.664;4.564;2023-05-31T03:57:18;11.30;99.90
20750;DHT22;10535;50.664;4.564;2023-05-31T03:59:43;11.50;99.90
20750;DHT22;10535;50.664;4.564;2023-05-31T04:02:51;11.40;99.90
20750;DHT22;10535;50.664;4.564;2023-05-31T04:05:51;11.40;99.90
20750;DHT22;10535;50.664;4.564;2023-05-31T04:08:44;11.50;99.90
20750;DHT22;10535;50.664;4.564;2023-05-31T04:11:32;11.40;99.90
20750;DHT22;10535;50.664;4.564;2023-05-31T04:14:06;11.30;99.90
20750;DHT22;10535;50.664;4.564;2023-05-31T04:16:56;11.40;99.90
20750;DHT22;10535;50.664;4.564;2023-05-31T04:19:54;11.40;99.90
20750;DHT22;10535;50.664;4.564;2023-05-31T04:22:30;11.40;99.90
20750;DHT22;10535;50.664;4.564;2023-05-31T04:25:54;11.50;99.90
20750;DHT22;10535;50.664;4.564;2023-05-31T04:28:23;11.70;99.90
20750;DHT22;10535;50.664;4.564;2023-05-31T04:30:48;11.60;99.90
20750;DHT22;10535;50.664;4.564;2023-05-31T04:33:14;11.60;99.90
20750;DHT22;10535;50.664;4.564;2023-05-31T04:35:42;11.70;99.90
20750;DHT22;10535;50.664;4.564;2023-05-31T04:38:08;11.70;99.90
20750;DHT22;10535;50.664;4.564;2023-05-31T04:40:34;11.80;99.90
20750;DHT22;10535;50.664;4.564;2023-05-31T04:43:00;11.80;99.90
20750;DHT22;10535;50.664;4.564;2023-05-31T04:45:26;11.90;99.90
20750;DHT22;10535;50.664;4.564;2023-05-31T04:47:52;11.90;99.90
20750;DHT22;10535;50.664;4.564;2023-05-31T04:50:19;11.90;99.90
20750;DHT22;10535;50.664;4.564;2023-05-31T04:52:45;12.00;99.90
20750;DHT22;10535;50.664;4.564;2023-05-31T04:55:12;12.30;99.90
20750;DHT22;10535;50.664;4.564;2023-05-31T04:57:38;12.40;99.90
20750;DHT22;10535;50.664;4.564;2023-05-31T05:00:04;12.50;99.90
20750;DHT22;10535;50.664;4.564;2023-05-31T05:02:34;12.80;99.90
20750;DHT22;10535;50.664;4.564;2023-05-31T05:05:01;13.10;99.90
20750;DHT22;10535;50.664;4.564;2023-05-31T05:07:29;13.30;99.90
20750;DHT22;10535;50.664;4.564;2023-05-31T05:09:58;13.50;99.90
20750;DHT22;10535;50.664;4.564;2023-05-31T05:12:26;13.60;99.90
20750;DHT22;10535;50.664;4.564;2023-05-31T05:14:52;14.00;99.90
20750;DHT22;10535;50.664;4.564;2023-05-31T05:17:18;14.50;99.90
20750;DHT22;10535;50.664;4.564;2023-05-31T05:19:44;14.70;99.90
20750;DHT22;10535;50.664;4.564;2023-05-31T05:22:10;14.70;99.90
20750;DHT22;10535;50.664;4.564;2023-05-31T05:24:36;14.80;99.90
20750;DHT22;10535;50.664;4.564;2023-05-31T05:27:02;14.80;99.90
20750;DHT22;10535;50.664;4.564;2023-05-31T05:29:28;14.90;99.90
20750;DHT22;10535;50.664;4.564;2023-05-31T05:31:54;14.90;99.90
20750;DHT22;10535;50.664;4.564;2023-05-31T05:34:20;15.00;99.90
20750;DHT22;10535;50.664;4.564;2023-05-31T05:36:45;15.30;99.90
20750;DHT22;10535;50.664;4.564;2023-05-31T05:39:12;15.60;99.90
20750;DHT22;10535;50.664;4.564;2023-05-31T05:41:39;15.20;99.90
20750;DHT22;10535;50.664;4.564;2023-05-31T05:44:06;15.30;99.90
20750;DHT22;10535;50.664;4.564;2023-05-31T05:46:31;15.10;99.90
20750;DHT22;10535;50.664;4.564;2023-05-31T05:48:59;14.90;99.90
20750;DHT22;10535;50.664;4.564;2023-05-31T05:51:25;15.20;99.90
20750;DHT22;10535;50.664;4.564;2023-05-31T05:53:50;15.30;99.90
20750;DHT22;10535;50.664;4.564;2023-05-31T05:56:16;15.60;99.90
20750;DHT22;10535;50.664;4.564;2023-05-31T05:58:47;15.30;99.90
20750;DHT22;10535;50.664;4.564;2023-05-31T06:01:14;14.90;99.90
20750;DHT22;10535;50.664;4.564;2023-05-31T06:03:59;14.70;99.90
20750;DHT22;10535;50.664;4.564;2023-05-31T06:06:25;14.90;99.90
20750;DHT22;10535;50.664;4.564;2023-05-31T06:08:51;14.80;99.90
20750;DHT22;10535;50.664;4.564;2023-05-31T06:11:17;14.80;99.90
20750;DHT22;10535;50.664;4.564;2023-05-31T06:13:44;14.40;99.90
20750;DHT22;10535;50.664;4.564;2023-05-31T06:16:09;14.50;99.90
20750;DHT22;10535;50.664;4.564;2023-05-31T06:18:38;14.60;99.90
20750;DHT22;10535;50.664;4.564;2023-05-31T06:21:03;15.00;99.90
20750;DHT22;10535;50.664;4.564;2023-05-31T06:23:29;15.40;99.90
20750;DHT22;10535;50.664;4.564;2023-05-31T06:25:57;15.50;99.90
20750;DHT22;10535;50.664;4.564;2023-05-31T06:28:22;16.00;99.90
20750;DHT22;10535;50.664;4.564;2023-05-31T06:30:48;16.10;99.90
20750;DHT22;10535;50.664;4.564;2023-05-31T06:33:17;15.90;99.90
20750;DHT22;10535;50.664;4.564;2023-05-31T06:35:43;16.00;99.90
20750;DHT22;10535;50.664;4.564;2023-05-31T06:38:10;16.20;99.90
20750;DHT22;10535;50.664;4.564;2023-05-31T06:40:42;16.20;99.90
20750;DHT22;10535;50.664;4.564;2023-05-31T06:43:09;16.40;99.90
20750;DHT22;10535;50.664;4.564;2023-05-31T06:45:36;16.40;99.90
20750;DHT22;10535;50.664;4.564;2023-05-31T06:48:07;16.20;99.90
20750;DHT22;10535;50.664;4.564;2023-05-31T06:50:36;16.40;99.90
20750;DHT22;10535;50.664;4.564;2023-05-31T06:53:05;16.50;99.90
20750;DHT22;10535;50.664;4.564;2023-05-31T06:55:31;16.50;99.90
20750;DHT22;10535;50.664;4.564;2023-05-31T06:57:57;16.40;99.90
20750;DHT22;10535;50.664;4.564;2023-05-31T07:00:23;16.70;99.90
20750;DHT22;10535;50.664;4.564;2023-05-31T07:02:49;16.90;99.90
20750;DHT22;10535;50.664;4.564;2023-05-31T07:05:15;16.70;99.90
20750;DHT22;10535;50.664;4.564;2023-05-31T07:07:42;17.10;99.90
20750;DHT22;10535;50.664;4.564;2023-05-31T07:10:13;17.60;99.90
20750;DHT22;10535;50.664;4.564;2023-05-31T07:12:40;17.30;99.90
20750;DHT22;10535;50.664;4.564;2023-05-31T07:15:07;17.30;99.90
20750;DHT22;10535;50.664;4.564;2023-05-31T07:17:35;16.90;99.90
20750;DHT22;10535;50.664;4.564;2023-05-31T07:20:01;17.10;99.90
20750;DHT22;10535;50.664;4.564;2023-05-31T07:22:29;17.70;99.90
20750;DHT22;10535;50.664;4.564;2023-05-31T07:24:55;17.80;99.90
20750;DHT22;10535;50.664;4.564;2023-05-31T07:27:22;17.90;99.90
20750;DHT22;10535;50.664;4.564;2023-05-31T07:29:54;18.20;99.90
20750;DHT22;10535;50.664;4.564;2023-05-31T07:32:21;17.90;99.90
20750;DHT22;10535;50.664;4.564;2023-05-31T07:34:46;17.40;99.90
20750;DHT22;10535;50.664;4.564;2023-05-31T07:37:13;17.20;99.90
20750;DHT22;10535;50.664;4.564;2023-05-31T07:39:38;17.30;99.90
20750;DHT22;10535;50.664;4.564;2023-05-31T07:42:06;17.50;99.90
20750;DHT22;10535;50.664;4.564;2023-05-31T07:44:31;17.70;99.90
20750;DHT22;10535;50.664;4.564;2023-05-31T07:46:59;17.20;99.90
20750;DHT22;10535;50.664;4.564;2023-05-31T07:49:25;17.00;99.90
20750;DHT22;10535;50.664;4.564;2023-05-31T07:51:58;17.10;99.90
20750;DHT22;10535;50.664;4.564;2023-05-31T07:54:24;17.00;99.90
20750;DHT22;10535;50.664;4.564;2023-05-31T07:56:50;17.00;99.90
20750;DHT22;10535;50.664;4.564;2023-05-31T07:59:23;17.10;99.90
20750;DHT22;10535;50.664;4.564;2023-05-31T08:01:52;17.20;99.90
20750;DHT22;10535;50.664;4.564;2023-05-31T08:04:19;17.40;99.90
20750;DHT22;10535;50.664;4.564;2023-05-31T08:06:46;17.50;99.90
20750;DHT22;10535;50.664;4.564;2023-05-31T08:09:12;17.70;99.90
20750;DHT22;10535;50.664;4.564;2023-05-31T08:11:38;17.70;99.90
20750;DHT22;10535;50.664;4.564;2023-05-31T08:14:04;18.10;99.90
20750;DHT22;10535;50.664;4.564;2023-05-31T08:16:31;18.10;99.90
20750;DHT22;10535;50.664;4.564;2023-05-31T08:19:03;18.20;99.90
20750;DHT22;10535;50.664;4.564;2023-05-31T08:21:32;18.20;99.90
20750;DHT22;10535;50.664;4.564;2023-05-31T08:24:03;18.40;99.90
20750;DHT22;10535;50.664;4.564;2023-05-31T08:26:31;18.10;99.90
20750;DHT22;10535;50.664;4.564;2023-05-31T08:28:58;18.10;99.90
20750;DHT22;10535;50.664;4.564;2023-05-31T08:31:44;18.10;99.90
20750;DHT22;10535;50.664;4.564;2023-05-31T08:34:10;18.60;99.90
20750;DHT22;10535;50.664;4.564;2023-05-31T08:36:36;18.60;99.90
20750;DHT22;10535;50.664;4.564;2023-05-31T08:39:01;18.70;99.90
20750;DHT22;10535;50.664;4.564;2023-05-31T08:41:31;18.90;99.90
20750;DHT22;10535;50.664;4.564;2023-05-31T08:44:06;18.70;99.90
20750;DHT22;10535;50.664;4.564;2023-05-31T08:46:35;18.50;99.90
20750;DHT22;10535;50.664;4.564;2023-05-31T08:49:13;18.20;99.90
20750;DHT22;10535;50.664;4.564;2023-05-31T08:51:45;18.20;99.90
20750;DHT22;10535;50.664;4.564;2023-05-31T08:54:17;18.50;99.90
20750;DHT22;10535;50.664;4.564;2023-05-31T08:56:58;18.90;99.90
20750;DHT22;10535;50.664;4.564;2023-05-31T08:59:40;18.80;99.90
20750;DHT22;10535;50.664;4.564;2023-05-31T09:02:24;19.10;99.90
20750;DHT22;10535;50.664;4.564;2023-05-31T09:05:12;19.10;99.90
20750;DHT22;10535;50.664;4.564;2023-05-31T09:11:13;19.40;99.90
20750;DHT22;10535;50.664;4.564;2023-05-31T09:14:15;20.10;99.90
20750;DHT22;10535;50.664;4.564;2023-05-31T09:16:51;20.30;99.90
20750;DHT22;10535;50.664;4.564;2023-05-31T09:19:22;19.90;99.90
20750;DHT22;10535;50.664;4.564;2023-05-31T09:22:37;20.00;99.90
20750;DHT22;10535;50.664;4.564;2023-05-31T09:25:17;19.90;99.90
20750;DHT22;10535;50.664;4.564;2023-05-31T09:27:43;19.70;99.90
20750;DHT22;10535;50.664;4.564;2023-05-31T09:30:33;19.60;99.90
20750;DHT22;10535;50.664;4.564;2023-05-31T09:32:59;19.70;99.90
20750;DHT22;10535;50.664;4.564;2023-05-31T09:35:56;19.70;99.90
20750;DHT22;10535;50.664;4.564;2023-05-31T09:38:49;19.70;99.90
20750;DHT22;10535;50.664;4.564;2023-05-31T09:41:33;19.50;99.90
20750;DHT22;10535;50.664;4.564;2023-05-31T09:44:17;20.00;99.90
20750;DHT22;10535;50.664;4.564;2023-05-31T09:49:23;20.10;99.90
20750;DHT22;10535;50.664;4.564;2023-05-31T09:52:12;20.30;99.90
20750;DHT22;10535;50.664;4.564;2023-05-31T09:57:06;20.40;99.90
20750;DHT22;10535;50.664;4.564;2023-05-31T09:59:56;20.20;99.90
20750;DHT22;10535;50.664;4.564;2023-05-31T10:02:25;20.40;99.90
20750;DHT22;10535;50.664;4.564;2023-05-31T10:05:02;20.60;99.90
20750;DHT22;10535;50.664;4.564;2023-05-31T10:07:36;20.50;99.90
20750;DHT22;10535;50.664;4.564;2023-05-31T10:10:02;20.80;99.90
20750;DHT22;10535;50.664;4.564;2023-05-31T10:12:29;20.80;99.90
20750;DHT22;10535;50.664;4.564;2023-05-31T10:15:06;20.80;99.90
20750;DHT22;10535;50.664;4.564;2023-05-31T10:17:38;21.00;99.90
20750;DHT22;10535;50.664;4.564;2023-05-31T10:20:06;21.10;99.90
20750;DHT22;10535;50.664;4.564;2023-05-31T10:22:40;21.10;99.90
20750;DHT22;10535;50.664;4.564;2023-05-31T10:25:56;21.10;99.90
20750;DHT22;10535;50.664;4.564;2023-05-31T10:28:27;21.20;99.90
20750;DHT22;10535;50.664;4.564;2023-05-31T10:30:54;21.30;99.90
20750;DHT22;10535;50.664;4.564;2023-05-31T10:33:44;21.60;99.90
20750;DHT22;10535;50.664;4.564;2023-05-31T10:36:14;21.90;99.90
20750;DHT22;10535;50.664;4.564;2023-05-31T10:38:51;22.30;99.90
20750;DHT22;10535;50.664;4.564;2023-05-31T10:41:22;22.40;99.90
20750;DHT22;10535;50.664;4.564;2023-05-31T10:44:02;22.50;99.90
20750;DHT22;10535;50.664;4.564;2023-05-31T10:46:32;22.40;99.90
20750;DHT22;10535;50.664;4.564;2023-05-31T10:49:02;22.70;99.90
20750;DHT22;10535;50.664;4.564;2023-05-31T10:51:44;22.80;99.90
20750;DHT22;10535;50.664;4.564;2023-05-31T10:54:21;22.70;99.90
20750;DHT22;10535;50.664;4.564;2023-05-31T10:56:58;22.20;99.90
20750;DHT22;10535;50.664;4.564;2023-05-31T10:59:44;22.20;99.90
20750;DHT22;10535;50.664;4.564;2023-05-31T11:02:16;22.40;99.90
20750;DHT22;10535;50.664;4.564;2023-05-31T11:04:43;22.40;99.90
20750;DHT22;10535;50.664;4.564;2023-05-31T11:09:57;22.20;99.90
20750;DHT22;10535;50.664;4.564;2023-05-31T11:13:14;22.30;99.90
20750;DHT22;10535;50.664;4.564;2023-05-31T11:16:19;22.40;99.90
20750;DHT22;10535;50.664;4.564;2023-05-31T11:19:06;22.90;99.90
20750;DHT22;10535;50.664;4.564;2023-05-31T11:21:59;22.90;99.90
20750;DHT22;10535;50.664;4.564;2023-05-31T11:34:16;22.80;99.90
20750;DHT22;10535;50.664;4.564;2023-05-31T11:36:47;22.60;99.90
20750;DHT22;10535;50.664;4.564;2023-05-31T11:39:16;22.40;99.90
20750;DHT22;10535;50.664;4.564;2023-05-31T11:41:44;22.40;99.90
20750;DHT22;10535;50.664;4.564;2023-05-31T11:44:30;22.60;99.90
20750;DHT22;10535;50.664;4.564;2023-05-31T11:47:10;23.10;99.90
20750;DHT22;10535;50.664;4.564;2023-05-31T11:49:40;23.40;99.90
20750;DHT22;10535;50.664;4.564;2023-05-31T11:52:07;23.30;99.90
20750;DHT22;10535;50.664;4.564;2023-05-31T11:54:33;23.30;99.90
20750;DHT22;10535;50.664;4.564;2023-05-31T11:57:03;23.20;99.90
20750;DHT22;10535;50.664;4.564;2023-05-31T11:59:34;22.90;99.90
20750;DHT22;10535;50.664;4.564;2023-05-31T12:02:09;22.70;99.90
20750;DHT22;10535;50.664;4.564;2023-05-31T12:04:40;22.70;99.90
20750;DHT22;10535;50.664;4.564;2023-05-31T12:07:16;22.90;99.90
20750;DHT22;10535;50.664;4.564;2023-05-31T12:09:49;23.00;99.90
20750;DHT22;10535;50.664;4.564;2023-05-31T12:12:25;23.00;99.90
20750;DHT22;10535;50.664;4.564;2023-05-31T12:15:00;23.20;99.90
20750;DHT22;10535;50.664;4.564;2023-05-31T12:17:33;23.40;99.90
20750;DHT22;10535;50.664;4.564;2023-05-31T12:20:16;23.70;99.90
20750;DHT22;10535;50.664;4.564;2023-05-31T12:22:48;23.70;99.90
20750;DHT22;10535;50.664;4.564;2023-05-31T12:25:15;23.60;99.90
20750;DHT22;10535;50.664;4.564;2023-05-31T12:27:41;23.40;99.90
20750;DHT22;10535;50.664;4.564;2023-05-31T12:30:07;23.60;99.90
20750;DHT22;10535;50.664;4.564;2023-05-31T12:32:33;23.50;99.90
20750;DHT22;10535;50.664;4.564;2023-05-31T12:35:18;23.20;99.90
20750;DHT22;10535;50.664;4.564;2023-05-31T12:37:44;23.30;99.90
20750;DHT22;10535;50.664;4.564;2023-05-31T12:40:17;23.40;99.90
20750;DHT22;10535;50.664;4.564;2023-05-31T12:42:48;23.40;99.90
20750;DHT22;10535;50.664;4.564;2023-05-31T12:45:18;23.60;99.90
20750;DHT22;10535;50.664;4.564;2023-05-31T12:48:08;23.80;99.90
20750;DHT22;10535;50.664;4.564;2023-05-31T12:51:22;24.10;99.90
20750;DHT22;10535;50.664;4.564;2023-05-31T12:54:17;24.20;99.90
20750;DHT22;10535;50.664;4.564;2023-05-31T12:56:43;24.10;99.90
20750;DHT22;10535;50.664;4.564;2023-05-31T12:59:10;24.20;99.90
20750;DHT22;10535;50.664;4.564;2023-05-31T13:01:38;23.90;99.90
20750;DHT22;10535;50.664;4.564;2023-05-31T13:04:09;24.00;99.90
20750;DHT22;10535;50.664;4.564;2023-05-31T13:06:39;24.00;99.90
20750;DHT22;10535;50.664;4.564;2023-05-31T13:14:43;23.70;99.90
20750;DHT22;10535;50.664;4.564;2023-05-31T13:17:30;23.70;99.90
20750;DHT22;10535;50.664;4.564;2023-05-31T13:20:00;23.40;99.90
20750;DHT22;10535;50.664;4.564;2023-05-31T13:22:47;23.60;99.90
20750;DHT22;10535;50.664;4.564;2023-05-31T13:25:21;23.90;99.90
20750;DHT22;10535;50.664;4.564;2023-05-31T13:30:59;24.60;99.90
20750;DHT22;10535;50.664;4.564;2023-05-31T13:34:19;24.40;99.90
20750;DHT22;10535;50.664;4.564;2023-05-31T13:36:47;24.20;99.90
20750;DHT22;10535;50.664;4.564;2023-05-31T13:39:21;24.10;99.90
20750;DHT22;10535;50.664;4.564;2023-05-31T13:41:50;24.10;99.90
20750;DHT22;10535;50.664;4.564;2023-05-31T13:44:41;24.20;99.90
20750;DHT22;10535;50.664;4.564;2023-05-31T13:47:07;24.30;99.90
20750;DHT22;10535;50.664;4.564;2023-05-31T13:50:00;24.20;99.90
20750;DHT22;10535;50.664;4.564;2023-05-31T13:52:31;24.20;99.90
20750;DHT22;10535;50.664;4.564;2023-05-31T13:55:06;24.10;99.90
20750;DHT22;10535;50.664;4.564;2023-05-31T13:57:32;24.20;99.90
20750;DHT22;10535;50.664;4.564;2023-05-31T13:59:58;24.40;99.90
20750;DHT22;10535;50.664;4.564;2023-05-31T14:02:24;24.40;99.90
20750;DHT22;10535;50.664;4.564;2023-05-31T14:04:50;24.60;99.90
20750;DHT22;10535;50.664;4.564;2023-05-31T14:07:25;24.50;99.90
20750;DHT22;10535;50.664;4.564;2023-05-31T14:10:20;24.50;99.90
20750;DHT22;10535;50.664;4.564;2023-05-31T14:12:51;24.60;99.90
20750;DHT22;10535;50.664;4.564;2023-05-31T14:15:17;24.40;99.90
20750;DHT22;10535;50.664;4.564;2023-05-31T14:17:51;24.10;99.90
20750;DHT22;10535;50.664;4.564;2023-05-31T14:20:34;24.30;99.90
20750;DHT22;10535;50.664;4.564;2023-05-31T14:23:04;24.50;99.90
20750;DHT22;10535;50.664;4.564;2023-05-31T14:25:30;24.80;99.90
20750;DHT22;10535;50.664;4.564;2023-05-31T14:27:56;24.70;99.90
20750;DHT22;10535;50.664;4.564;2023-05-31T14:30:26;24.60;99.90
20750;DHT22;10535;50.664;4.564;2023-05-31T14:32:54;24.90;99.90
20750;DHT22;10535;50.664;4.564;2023-05-31T14:35:20;24.40;99.90
20750;DHT22;10535;50.664;4.564;2023-05-31T14:37:47;24.40;99.90
20750;DHT22;10535;50.664;4.564;2023-05-31T14:40:13;24.40;99.90
20750;DHT22;10535;50.664;4.564;2023-05-31T14:42:41;24.80;99.90
20750;DHT22;10535;50.664;4.564;2023-05-31T14:45:07;24.60;99.90
20750;DHT22;10535;50.664;4.564;2023-05-31T14:47:33;24.50;99.90
20750;DHT22;10535;50.664;4.564;2023-05-31T14:50:03;24.70;99.90
20750;DHT22;10535;50.664;4.564;2023-05-31T14:52:31;24.90;99.90
20750;DHT22;10535;50.664;4.564;2023-05-31T14:54:59;24.70;99.90
20750;DHT22;10535;50.664;4.564;2023-05-31T14:57:25;24.50;99.90
20750;DHT22;10535;50.664;4.564;2023-05-31T15:00:21;24.80;99.90
20750;DHT22;10535;50.664;4.564;2023-05-31T15:02:55;25.10;99.90
20750;DHT22;10535;50.664;4.564;2023-05-31T15:05:21;25.30;99.90
20750;DHT22;10535;50.664;4.564;2023-05-31T15:07:48;25.50;99.90
20750;DHT22;10535;50.664;4.564;2023-05-31T15:10:20;25.50;99.90
20750;DHT22;10535;50.664;4.564;2023-05-31T15:12:49;24.90;99.90
20750;DHT22;10535;50.664;4.564;2023-05-31T15:15:15;25.00;99.90
20750;DHT22;10535;50.664;4.564;2023-05-31T15:17:43;24.90;99.90
20750;DHT22;10535;50.664;4.564;2023-05-31T15:20:23;24.70;99.90
20750;DHT22;10535;50.664;4.564;2023-05-31T15:22:51;24.60;99.90
20750;DHT22;10535;50.664;4.564;2023-05-31T15:25:39;24.70;99.90
20750;DHT22;10535;50.664;4.564;2023-05-31T15:28:08;24.80;99.90
20750;DHT22;10535;50.664;4.564;2023-05-31T15:30:58;25.00;99.90
20750;DHT22;10535;50.664;4.564;2023-05-31T15:33:26;25.10;99.90
20750;DHT22;10535;50.664;4.564;2023-05-31T15:35:52;25.00;99.90
20750;DHT22;10535;50.664;4.564;2023-05-31T15:38:17;24.60;99.90
20750;DHT22;10535;50.664;4.564;2023-05-31T15:40:45;24.70;99.90
20750;DHT22;10535;50.664;4.564;2023-05-31T15:43:13;24.80;99.90
20750;DHT22;10535;50.664;4.564;2023-05-31T15:45:39;24.80;99.90
20750;DHT22;10535;50.664;4.564;2023-05-31T15:48:05;24.60;99.90
20750;DHT22;10535;50.664;4.564;2023-05-31T15:50:32;24.70;99.90
20750;DHT22;10535;50.664;4.564;2023-05-31T15:52:58;24.90;99.90
20750;DHT22;10535;50.664;4.564;2023-05-31T15:55:23;25.20;99.90
20750;DHT22;10535;50.664;4.564;2023-05-31T15:57:51;25.20;99.90
20750;DHT22;10535;50.664;4.564;2023-05-31T16:00:18;25.00;99.90
20750;DHT22;10535;50.664;4.564;2023-05-31T16:02:49;25.30;99.90
20750;DHT22;10535;50.664;4.564;2023-05-31T16:05:20;25.40;99.90
20750;DHT22;10535;50.664;4.564;2023-05-31T16:08:06;25.70;99.90
20750;DHT22;10535;50.664;4.564;2023-05-31T16:10:37;25.70;99.90
20750;DHT22;10535;50.664;4.564;2023-05-31T16:13:06;25.40;99.90
20750;DHT22;10535;50.664;4.564;2023-05-31T16:15:36;25.20;99.90
20750;DHT22;10535;50.664;4.564;2023-05-31T16:18:13;25.10;99.90
20750;DHT22;10535;50.664;4.564;2023-05-31T16:20:40;24.70;99.90
20750;DHT22;10535;50.664;4.564;2023-05-31T16:23:13;24.60;99.90
20750;DHT22;10535;50.664;4.564;2023-05-31T16:25:49;24.70;99.90
20750;DHT22;10535;50.664;4.564;2023-05-31T16:28:33;24.90;99.90
20750;DHT22;10535;50.664;4.564;2023-05-31T16:30:58;25.10;99.90
20750;DHT22;10535;50.664;4.564;2023-05-31T16:33:28;25.00;99.90
20750;DHT22;10535;50.664;4.564;2023-05-31T16:35:57;24.90;99.90
20750;DHT22;10535;50.664;4.564;2023-05-31T16:38:23;25.20;99.90
20750;DHT22;10535;50.664;4.564;2023-05-31T16:40:49;25.00;99.90
20750;DHT22;10535;50.664;4.564;2023-05-31T16:43:15;25.10;99.90
20750;DHT22;10535;50.664;4.564;2023-05-31T16:45:40;25.10;99.90
20750;DHT22;10535;50.664;4.564;2023-05-31T16:48:06;25.00;99.90
20750;DHT22;10535;50.664;4.564;2023-05-31T16:50:32;24.90;99.90
20750;DHT22;10535;50.664;4.564;2023-05-31T16:52:57;24.70;99.90
20750;DHT22;10535;50.664;4.564;2023-05-31T16:55:23;24.50;99.90
20750;DHT22;10535;50.664;4.564;2023-05-31T16:57:49;24.60;99.90
20750;DHT22;10535;50.664;4.564;2023-05-31T17:00:15;24.50;99.90
20750;DHT22;10535;50.664;4.564;2023-05-31T17:02:41;24.50;99.90
20750;DHT22;10535;50.664;4.564;2023-05-31T17:05:07;24.50;99.90